TimeEDT,TemperatureF,Dew PointF,Humidity,Sea Level PressureIn,VisibilityMPH,Wind Direction,Wind SpeedMPH,Gust SpeedMPH,PrecipitationIn,Events,Conditions,WindDirDegrees,DateUTC
12:53 AM,52.0,37.9,59,30.22,10.0,NNE,4.6,-,N/A,,Overcast,30,2013-04-17 04:53:00
1:53 AM,51.1,41.0,68,30.23,10.0,NE,6.9,-,N/A,,Overcast,50,2013-04-17 05:53:00
2:53 AM,48.9,41.0,74,30.26,10.0,ENE,10.4,-,N/A,,Overcast,60,2013-04-17 06:53:00
3:53 AM,46.9,42.1,83,30.27,10.0,NNE,11.5,-,N/A,,Mostly Cloudy,30,2013-04-17 07:53:00
4:53 AM,46.0,37.9,73,30.29,10.0,NNE,10.4,18.4,N/A,,Overcast,30,2013-04-17 08:53:00
5:53 AM,45.0,37.0,74,30.29,10.0,NE,11.5,17.3,N/A,,Overcast,50,2013-04-17 09:53:00
6:53 AM,45.0,37.0,74,30.30,10.0,NE,10.4,18.4,N/A,,Overcast,50,2013-04-17 10:53:00
7:53 AM,45.0,36.0,71,30.32,10.0,ENE,10.4,-,0.01,,Overcast,60,2013-04-17 11:53:00
8:49 AM,46.4,35.6,66,30.31,10.0,ENE,12.7,19.6,N/A,,Mostly Cloudy,70,2013-04-17 12:49:00
8:53 AM,46.0,34.0,63,30.31,10.0,ENE,15.0,26.5,N/A,,Mostly Cloudy,70,2013-04-17 12:53:00
10:53 AM,48.0,35.1,61,30.32,10.0,ENE,15.0,21.9,N/A,,Clear,70,2013-04-17 14:53:00
11:53 AM,48.9,35.1,59,30.30,10.0,East,16.1,23.0,N/A,,Clear,80,2013-04-17 15:53:00
12:53 PM,50.0,34.0,54,30.30,10.0,ENE,17.3,26.5,N/A,,Clear,60,2013-04-17 16:53:00
1:53 PM,50.0,34.0,54,30.29,10.0,ENE,16.1,21.9,N/A,,Overcast,60,2013-04-17 17:53:00
2:53 PM,50.0,33.1,52,30.25,10.0,ENE,18.4,25.3,N/A,,Overcast,60,2013-04-17 18:53:00
3:53 PM,48.0,35.1,61,30.21,10.0,ENE,13.8,19.6,N/A,,Overcast,60,2013-04-17 19:53:00
4:53 PM,48.0,34.0,58,30.18,10.0,ENE,13.8,23.0,N/A,,Overcast,70,2013-04-17 20:53:00
5:53 PM,50.0,32.0,50,30.15,10.0,East,16.1,27.6,N/A,,Overcast,90,2013-04-17 21:53:00
6:53 PM,48.0,33.1,56,30.15,10.0,ENE,11.5,20.7,N/A,,Overcast,70,2013-04-17 22:53:00
7:14 PM,48.2,33.8,58,30.12,10.0,East,11.5,-,N/A,,Overcast,90,2013-04-17 23:14:00
7:53 PM,48.0,33.1,56,30.11,10.0,East,17.3,26.5,N/A,,Overcast,90,2013-04-17 23:53:00
8:53 PM,48.0,33.1,56,30.06,10.0,East,11.5,19.6,N/A,,Overcast,80,2013-04-18 00:53:00
9:53 PM,48.0,34.0,58,30.08,10.0,NE,8.1,-,N/A,,Overcast,40,2013-04-18 01:53:00
10:53 PM,46.9,37.0,68,30.10,10.0,NE,16.1,21.9,N/A,,Mostly Cloudy,40,2013-04-18 02:53:00
11:25 PM,48.2,37.4,66,30.09,10.0,NE,12.7,19.6,N/A,,Overcast,40,2013-04-18 03:25:00
11:53 PM,46.9,37.9,71,30.08,10.0,NE,17.3,25.3,0.00,Rain,Light Rain,50,2013-04-18 03:53:00